Terminal Aerodrome Forecast
Issued by NWS

Home | Current Version | Previous Version | Text Only | Print | Product List | Glossary On
Versions: 1 2 3 4 5 6 7 8 9 10 11 12 13 14 15 16 17 18 19 20 21 22 23
575
FTUS44 KLIX 251125
TAFHDC
TAF
KHDC 251125Z 2512/2612 00000KT P6SM VCSH SCT090
     FM251500 08004KT P6SM VCSH SCT040 BKN090
      TEMPO 2515/2519 09012G25KT 1SM TSRA BKN025CB
     FM260100 07003KT P6SM SCT250=

USA.gov is the U.S. government's official web portal to all federal, state and local government web resources and services.